Time;durP1;ratioP1;P1;durP2;ratioP2;P2;SDS_P1;SDS_P2;PMS_P1;PMS_P2;Temp;Humidity;BMP_temperature;BMP_pressure;BME280_temperature;BME280_humidity;BME280_pressure;Samples;Min_cycle;Max_cycle;Signal;HPM_P1;HPM_P2
2021/03/28 00:00:54;;;;;;;16.60;3.30;;;7.30;71.20;;;;;;4977792;28;20026;-87
2021/03/28 00:03:37;;;;;;;12.57;3.40;;;7.30;71.30;;;;;;4998756;28;20599;-88
2021/03/28 00:06:31;;;;;;;16.53;4.10;;;7.40;71.50;;;;;;4997734;28;20117;-88
2021/03/28 00:09:05;;;;;;;14.63;3.43;;;7.40;71.60;;;;;;4997436;28;20042;-88
2021/03/28 00:11:32;;;;;;;13.50;3.67;;;7.40;71.90;;;;;;4997255;28;20048;-88
2021/03/28 00:14:01;;;;;;;20.80;4.30;;;7.40;72.20;;;;;;4997268;28;20061;-87
2021/03/28 00:16:43;;;;;;;16.77;4.00;;;7.40;72.10;;;;;;4997302;28;20064;-87
2021/03/28 00:19:24;;;;;;;17.10;4.00;;;7.40;72.40;;;;;;4996951;28;20486;-88
2021/03/28 00:21:54;;;;;;;15.83;3.50;;;7.30;72.40;;;;;;5014381;28;20022;-87
2021/03/28 00:24:29;;;;;;;14.80;3.67;;;7.40;72.70;;;;;;4995632;28;20036;-87
2021/03/28 00:27:07;;;;;;;14.97;3.13;;;7.40;72.50;;;;;;5010450;28;20129;-87
2021/03/28 00:30:06;;;;;;;13.90;3.83;;;7.40;72.70;;;;;;4996708;28;20038;-88
2021/03/28 00:32:41;;;;;;;16.17;3.80;;;7.40;72.70;;;;;;4985735;28;20112;-88
2021/03/28 00:35:12;;;;;;;13.23;3.37;;;7.40;72.90;;;;;;4996476;28;20034;-88
2021/03/28 00:37:40;;;;;;;18.37;3.87;;;7.40;72.90;;;;;;4996765;28;20022;-88
2021/03/28 00:40:12;;;;;;;13.53;2.77;;;7.40;73.20;;;;;;4996829;28;20033;-88
2021/03/28 00:42:41;;;;;;;11.33;2.53;;;7.40;73.30;;;;;;4996714;28;20018;-88
2021/03/28 00:45:42;;;;;;;18.23;4.50;;;7.40;73.20;;;;;;4996702;28;20368;-87
2021/03/28 00:48:14;;;;;;;11.83;3.03;;;7.40;73.30;;;;;;4974826;28;20026;-88
2021/03/28 00:50:52;;;;;;;8.53;3.07;;;7.40;73.40;;;;;;5013670;28;20034;-88
2021/03/28 00:53:38;;;;;;;15.90;4.17;;;7.40;73.40;;;;;;5014201;28;20080;-88
2021/03/28 00:56:23;;;;;;;15.67;3.77;;;7.40;73.50;;;;;;4996293;28;20072;-88
2021/03/28 00:59:02;;;;;;;19.33;5.60;;;7.40;73.70;;;;;;4996462;28;20030;-87
2021/03/28 01:01:51;;;;;;;17.50;5.17;;;7.40;73.90;;;;;;4996178;28;20068;-87
2021/03/28 01:04:27;;;;;;;18.03;4.53;;;7.50;73.80;;;;;;4996105;28;20068;-87
2021/03/28 01:07:02;;;;;;;20.83;4.83;;;7.40;74.00;;;;;;4996571;28;20090;-87
2021/03/28 01:09:52;;;;;;;14.70;4.37;;;7.40;74.30;;;;;;5013019;28;20072;-88
2021/03/28 01:12:30;;;;;;;21.17;5.27;;;7.40;74.30;;;;;;4999504;28;20025;-87
2021/03/28 01:15:19;;;;;;;13.77;4.77;;;7.50;74.50;;;;;;5006965;28;20033;-88
2021/03/28 01:17:56;;;;;;;15.77;4.33;;;7.50;74.60;;;;;;5015183;28;20433;-88
2021/03/28 01:20:49;;;;;;;18.27;5.43;;;7.50;74.70;;;;;;5015834;28;20128;-87
2021/03/28 01:23:30;;;;;;;18.23;5.60;;;7.40;74.90;;;;;;5016219;28;20032;-87
2021/03/28 01:26:16;;;;;;;13.53;4.10;;;7.50;75.30;;;;;;5016027;28;20130;-88
2021/03/28 01:29:28;;;;;;;18.43;5.07;;;7.40;75.40;;;;;;5012025;28;20037;-87
2021/03/28 01:31:56;;;;;;;17.97;5.07;;;7.40;75.50;;;;;;5006737;28;20038;-86
2021/03/28 01:34:32;;;;;;;19.57;5.23;;;7.50;75.80;;;;;;5002294;28;20029;-87
2021/03/28 01:37:08;;;;;;;14.43;3.80;;;7.40;75.70;;;;;;4996330;28;20030;-88
2021/03/28 01:39:45;;;;;;;15.47;4.70;;;7.40;76.10;;;;;;4996006;28;20026;-88
2021/03/28 01:42:38;;;;;;;19.53;4.83;;;7.30;76.30;;;;;;4996404;28;20026;-87
2021/03/28 01:45:17;;;;;;;19.10;3.60;;;7.30;76.70;;;;;;5012486;28;20022;-88
2021/03/28 01:48:02;;;;;;;15.63;4.20;;;7.30;77.00;;;;;;4996060;28;20020;-88
2021/03/28 01:50:39;;;;;;;11.85;3.15;;;7.20;77.10;;;;;;4995556;28;20037;-87
2021/03/28 01:53:17;;;;;;;13.77;3.63;;;7.30;77.40;;;;;;4996231;28;20366;-88
2021/03/28 01:55:52;;;;;;;17.07;4.83;;;7.20;77.20;;;;;;5013871;28;20030;-86
2021/03/28 01:58:27;;;;;;;11.07;2.37;;;7.10;77.20;;;;;;4996133;28;20033;-88
2021/03/28 02:01:18;;;;;;;16.23;3.20;;;7.20;77.50;;;;;;4996830;28;20049;-87
2021/03/28 02:03:59;;;;;;;14.63;3.03;;;7.20;78.30;;;;;;4999667;28;20050;-89
2021/03/28 02:06:40;;;;;;;12.37;2.97;;;7.20;78.50;;;;;;5000032;28;20083;-88
2021/03/28 02:09:28;;;;;;;13.23;2.87;;;7.20;78.70;;;;;;4999815;28;20088;-88
2021/03/28 02:12:09;;;;;;;15.50;2.83;;;7.20;78.90;;;;;;4999510;28;20018;-88
2021/03/28 02:15:09;;;;;;;16.60;2.40;;;7.20;79.10;;;;;;4999424;28;20112;-89
2021/03/28 02:17:57;;;;;;;15.90;2.90;;;7.20;79.30;;;;;;4999633;28;20033;-88
2021/03/28 02:20:22;;;;;;;12.37;2.53;;;7.20;79.20;;;;;;4999200;28;20030;-88
2021/03/28 02:23:26;;;;;;;14.47;3.10;;;7.20;79.40;;;;;;4999649;28;20025;-88
2021/03/28 02:26:04;;;;;;;13.70;3.13;;;7.20;79.70;;;;;;4983743;28;20478;-89
2021/03/28 02:28:44;;;;;;;11.63;2.63;;;7.30;79.80;;;;;;4999485;28;20284;-88
2021/03/28 02:31:22;;;;;;;14.57;3.13;;;7.20;79.90;;;;;;4999732;28;20478;-88
2021/03/28 02:34:11;;;;;;;14.37;2.60;;;7.20;79.80;;;;;;4999303;28;20033;-88
2021/03/28 02:37:11;;;;;;;9.73;2.63;;;7.20;80.00;;;;;;4999353;28;20463;-88
2021/03/28 02:40:21;;;;;;;17.07;2.53;;;7.20;80.00;;;;;;5000248;28;20087;-88
2021/03/28 02:43:21;;;;;;;14.27;2.20;;;7.20;80.30;;;;;;4985030;28;20034;-88
2021/03/28 02:45:48;;;;;;;14.43;2.27;;;7.20;80.30;;;;;;4999815;28;20048;-88
2021/03/28 02:48:29;;;;;;;15.93;3.10;;;7.20;80.50;;;;;;5017373;28;20018;-86
2021/03/28 02:51:19;;;;;;;10.33;2.07;;;7.20;80.70;;;;;;5000250;28;20485;-88
2021/03/28 02:54:06;;;;;;;19.33;3.23;;;7.20;80.80;;;;;;4999847;28;20046;-88
2021/03/28 02:56:51;;;;;;;10.33;2.30;;;7.20;80.90;;;;;;4999877;28;20061;-88
2021/03/28 03:00:00;;;;;;;13.48;2.30;;;7.20;80.90;;;;;;4999769;28;20030;-88
2021/03/28 03:02:54;;;;;;;21.13;2.70;;;7.20;81.30;;;;;;4999207;28;20057;-87
2021/03/28 03:06:05;;;;;;;12.13;2.45;;;7.20;81.20;;;;;;4999600;28;20017;-87
2021/03/28 03:08:41;;;;;;;16.17;2.30;;;7.20;81.40;;;;;;4999239;28;20054;-87
2021/03/28 03:11:44;;;;;;;11.23;2.20;;;7.20;81.50;;;;;;4999119;28;20072;-88
2021/03/28 03:14:28;;;;;;;13.20;2.07;;;7.20;81.40;;;;;;4967916;28;20030;-87
2021/03/28 03:17:12;;;;;;;;;;;7.20;81.40;;;;;;4999035;28;20534;-87
2021/03/28 03:20:10;;;;;;;16.17;2.43;;;7.20;81.70;;;;;;5015720;28;19905;-88
2021/03/28 03:22:41;;;;;;;11.63;1.97;;;7.20;81.60;;;;;;4998398;28;20136;-88
2021/03/28 03:25:10;;;;;;;8.43;1.73;;;7.20;81.70;;;;;;4998268;28;20076;-86
2021/03/28 03:27:51;;;;;;;12.50;2.23;;;7.20;81.80;;;;;;4997885;28;20053;-88
2021/03/28 03:30:32;;;;;;;9.60;2.03;;;7.20;81.80;;;;;;4997665;28;20033;-87
2021/03/28 03:33:40;;;;;;;12.73;2.23;;;7.20;81.90;;;;;;4998313;28;20116;-88
2021/03/28 03:36:31;;;;;;;12.77;2.70;;;7.10;82.20;;;;;;4971029;28;20030;-87
2021/03/28 03:38:59;;;;;;;14.43;2.30;;;7.20;82.40;;;;;;4998383;28;20117;-88
2021/03/28 03:41:44;;;;;;;15.30;2.73;;;7.10;82.30;;;;;;5015397;28;20026;-88
2021/03/28 03:44:50;;;;;;;12.13;2.20;;;7.10;82.50;;;;;;4998035;28;20065;-88
2021/03/28 03:47:29;;;;;;;11.93;3.37;;;7.20;82.70;;;;;;4965855;28;20038;-88
2021/03/28 03:50:02;;;;;;;12.87;2.13;;;7.20;82.90;;;;;;4997788;28;20088;-88
2021/03/28 03:53:07;;;;;;;10.47;2.27;;;7.10;82.90;;;;;;4997723;28;20022;-88
2021/03/28 03:55:33;;;;;;;;;;;7.10;82.90;;;;;;4997540;28;20041;-86
2021/03/28 03:58:22;;;;;;;17.20;2.23;;;7.20;83.80;;;;;;4997669;28;19906;-87
2021/03/28 04:00:56;;;;;;;15.43;2.30;;;7.10;82.90;;;;;;5015132;28;20029;-87
2021/03/28 04:04:00;;;;;;;11.93;2.53;;;7.10;83.00;;;;;;4997241;28;20046;-88
2021/03/28 04:06:56;;;;;;;13.90;2.10;;;7.10;83.10;;;;;;4997851;28;20164;-88
2021/03/28 04:09:47;;;;;;;13.30;2.40;;;7.20;83.10;;;;;;4997631;28;20297;-89
2021/03/28 04:12:37;;;;;;;10.03;1.93;;;7.20;83.10;;;;;;4997280;28;20057;-89
2021/03/28 04:15:10;;;;;;;13.57;2.90;;;7.20;83.10;;;;;;4997731;28;20494;-87
2021/03/28 04:17:36;;;;;;;15.48;2.30;;;7.20;83.00;;;;;;4997561;28;20022;-88
2021/03/28 04:20:39;;;;;;;8.90;1.87;;;7.20;83.00;;;;;;4997538;28;20036;-87
2021/03/28 04:23:30;;;;;;;19.90;3.20;;;7.20;83.00;;;;;;4997114;28;20073;-87
2021/03/28 04:26:10;;;;;;;13.93;2.87;;;7.30;82.90;;;;;;4997030;28;20036;-87
2021/03/28 04:28:55;;;;;;;11.77;2.27;;;7.30;83.00;;;;;;4997063;28;20065;-87
2021/03/28 04:32:04;;;;;;;12.43;2.40;;;7.30;83.00;;;;;;5014834;28;20041;-87
2021/03/28 04:34:39;;;;;;;12.03;2.40;;;7.30;82.90;;;;;;4998606;28;20052;-88
2021/03/28 04:37:25;;;;;;;10.50;2.87;;;7.30;82.80;;;;;;4997261;28;20026;-88
2021/03/28 04:40:10;;;;;;;10.07;2.43;;;7.30;82.90;;;;;;4996965;28;20018;-88
2021/03/28 04:42:54;;;;;;;11.60;2.67;;;7.30;82.80;;;;;;4996930;28;20597;-90
2021/03/28 04:45:59;;;;;;;16.67;3.47;;;7.30;82.90;;;;;;4997178;28;20026;-88
2021/03/28 04:48:48;;;;;;;15.55;2.78;;;7.30;82.80;;;;;;5014169;28;20462;-89
2021/03/28 04:51:32;;;;;;;14.50;2.30;;;7.30;82.90;;;;;;5014435;28;20129;-89
2021/03/28 04:54:18;;;;;;;12.73;2.80;;;7.30;82.90;;;;;;4996819;28;20501;-88
2021/03/28 04:56:49;;;;;;;18.87;2.83;;;7.30;82.90;;;;;;5014211;28;20486;-88
2021/03/28 04:59:42;;;;;;;13.33;2.90;;;7.40;83.10;;;;;;4996472;28;20025;-89
2021/03/28 05:02:36;;;;;;;14.97;2.47;;;7.40;83.50;;;;;;5022783;28;20032;-88
2021/03/28 05:05:23;;;;;;;14.65;2.33;;;7.40;83.00;;;;;;5032998;28;20071;-90
2021/03/28 05:08:23;;;;;;;13.23;2.87;;;7.40;83.10;;;;;;5031844;28;20091;-88
2021/03/28 05:11:04;;;;;;;11.03;2.00;;;7.40;82.90;;;;;;5049583;28;20133;-88
2021/03/28 05:13:58;;;;;;;14.53;2.70;;;7.40;82.90;;;;;;5032661;28;20036;-89
2021/03/28 05:16:55;;;;;;;8.63;1.73;;;7.40;83.00;;;;;;5031916;28;20088;-88
2021/03/28 05:19:45;;;;;;;14.20;2.23;;;7.40;83.00;;;;;;4997865;28;20050;-87
2021/03/28 05:22:40;;;;;;;16.67;2.83;;;7.50;83.00;;;;;;5033820;28;20147;-88
2021/03/28 05:25:12;;;;;;;12.40;2.70;;;7.50;83.00;;;;;;5017796;28;20128;-88
2021/03/28 05:28:02;;;;;;;11.37;2.43;;;7.50;82.90;;;;;;5033583;28;20061;-88
2021/03/28 05:30:33;;;;;;;13.83;2.60;;;7.50;82.90;;;;;;5032528;28;20164;-89
2021/03/28 05:33:36;;;;;;;9.67;2.60;;;7.60;82.90;;;;;;5032659;28;20147;-88
2021/03/28 05:36:18;;;;;;;9.03;1.87;;;7.60;82.80;;;;;;5035603;28;20072;-89
2021/03/28 05:39:21;;;;;;;11.67;2.10;;;7.60;82.70;;;;;;5037114;28;20560;-88
2021/03/28 05:42:10;;;;;;;10.97;1.77;;;7.60;82.70;;;;;;5036206;28;20477;-88
2021/03/28 05:45:11;;;;;;;11.27;2.57;;;7.70;82.60;;;;;;5035960;28;20038;-88
2021/03/28 05:47:42;;;;;;;11.87;2.27;;;7.70;82.60;;;;;;5035818;28;20517;-89
2021/03/28 05:50:20;;;;;;;11.37;2.00;;;7.70;82.50;;;;;;5035615;28;20034;-89
2021/03/28 05:53:12;;;;;;;8.80;1.90;;;7.80;82.30;;;;;;5035840;28;20083;-89
2021/03/28 05:56:28;;;;;;;9.30;1.70;;;7.80;82.30;;;;;;4990265;28;20037;-87
2021/03/28 05:59:13;;;;;;;9.40;1.90;;;7.80;82.10;;;;;;4982643;28;20080;-89
2021/03/28 06:02:04;;;;;;;;;;;7.90;82.10;;;;;;5017430;28;20352;-88
2021/03/28 06:05:08;;;;;;;8.63;1.90;;;7.90;81.90;;;;;;4993813;28;19917;-88
2021/03/28 06:07:56;;;;;;;10.57;2.00;;;8.00;81.70;;;;;;4982274;28;20106;-89
2021/03/28 06:10:49;;;;;;;9.83;2.20;;;8.00;81.70;;;;;;4999573;28;20128;-88
2021/03/28 06:13:14;;;;;;;13.83;1.80;;;8.10;81.70;;;;;;4999676;28;20092;-88
2021/03/28 06:15:47;;;;;;;5.50;1.37;;;8.10;81.50;;;;;;5013768;28;20394;-88
2021/03/28 06:18:31;;;;;;;10.30;2.03;;;8.20;81.40;;;;;;5014054;28;20044;-88
2021/03/28 06:21:00;;;;;;;12.30;2.20;;;8.20;81.20;;;;;;4998749;28;20099;-88
2021/03/28 06:23:51;;;;;;;12.50;1.77;;;8.30;81.20;;;;;;5004987;28;20432;-87
2021/03/28 06:26:54;;;;;;;13.47;1.97;;;8.20;81.10;;;;;;5018333;28;20076;-87
2021/03/28 06:29:57;;;;;;;6.50;1.30;;;8.30;81.20;;;;;;5012370;28;20367;-88
2021/03/28 06:33:02;;;;;;;9.07;2.37;;;8.30;81.10;;;;;;5015336;28;20026;-89
2021/03/28 06:35:42;;;;;;;8.80;1.60;;;8.40;81.00;;;;;;5016906;28;20381;-89
2021/03/28 06:38:17;;;;;;;9.67;1.73;;;8.40;80.90;;;;;;4998964;28;20045;-88
2021/03/28 06:40:58;;;;;;;8.80;1.60;;;8.40;80.80;;;;;;4998931;28;20030;-87
2021/03/28 06:44:01;;;;;;;9.20;2.23;;;8.50;80.60;;;;;;4998789;28;20026;-88
2021/03/28 06:46:46;;;;;;;9.90;1.60;;;8.50;80.30;;;;;;4998806;28;21166;-89
2021/03/28 06:49:56;;;;;;;11.10;3.00;;;8.50;80.10;;;;;;4999156;28;20391;-89
2021/03/28 06:52:50;;;;;;;15.77;2.30;;;8.50;80.10;;;;;;4983856;28;20034;-88
2021/03/28 06:55:40;;;;;;;6.63;1.80;;;8.60;80.10;;;;;;4998689;28;20045;-87
2021/03/28 06:58:34;;;;;;;8.30;2.20;;;8.60;79.90;;;;;;4999014;28;20034;-88
2021/03/28 07:01:39;;;;;;;12.18;2.00;;;8.60;80.00;;;;;;4999026;28;20108;-88
2021/03/28 07:04:22;;;;;;;8.17;2.33;;;8.50;79.90;;;;;;4968655;28;20046;-87
2021/03/28 07:07:08;;;;;;;13.27;2.15;;;8.60;79.90;;;;;;4998321;28;20069;-87
2021/03/28 07:10:07;;;;;;;9.87;2.60;;;8.70;80.00;;;;;;4998893;28;20026;-88
2021/03/28 07:12:54;;;;;;;10.97;1.80;;;8.70;80.10;;;;;;4998519;28;20033;-90
2021/03/28 07:15:39;;;;;;;11.40;2.57;;;8.80;79.80;;;;;;5015670;28;20112;-88
2021/03/28 07:18:08;;;;;;;11.73;2.00;;;8.80;79.60;;;;;;4998336;28;20521;-89
2021/03/28 07:20:37;;;;;;;10.33;2.37;;;8.90;79.40;;;;;;4998453;28;20029;-89
2021/03/28 07:23:23;;;;;;;9.67;2.60;;;9.00;79.30;;;;;;4997837;28;20057;-88
2021/03/28 07:26:09;;;;;;;9.93;2.03;;;9.00;79.30;;;;;;4997847;28;20502;-89
2021/03/28 07:28:53;;;;;;;12.00;2.47;;;9.10;79.10;;;;;;4998043;28;20428;-88
2021/03/28 07:31:38;;;;;;;;;;;9.10;78.80;;;;;;4998774;28;20061;-89
2021/03/28 07:34:55;;;;;;;12.23;1.60;;;9.20;78.80;;;;;;4998022;28;19909;-89
2021/03/28 07:37:27;;;;;;;12.83;2.07;;;9.30;78.90;;;;;;5015567;28;20052;-87
2021/03/28 07:40:21;;;;;;;12.47;2.10;;;9.40;78.60;;;;;;4997962;28;20041;-90
2021/03/28 07:43:02;;;;;;;11.65;2.30;;;9.40;78.30;;;;;;4985096;28;20080;-89
2021/03/28 07:45:28;;;;;;;15.67;2.43;;;9.60;78.20;;;;;;4997951;28;20022;-88
2021/03/28 07:48:23;;;;;;;7.13;2.03;;;9.60;78.00;;;;;;4997543;28;20036;-90
2021/03/28 07:51:14;;;;;;;10.27;2.10;;;9.70;77.70;;;;;;4997276;28;20041;-90
2021/03/28 07:54:20;;;;;;;9.30;2.33;;;9.80;77.00;;;;;;4997347;28;20041;-89
2021/03/28 07:57:25;;;;;;;8.03;1.90;;;9.80;77.10;;;;;;4995282;28;20045;-90
2021/03/28 08:00:35;;;;;;;13.27;2.35;;;9.90;77.10;;;;;;4975087;28;20030;-89
2021/03/28 08:03:15;;;;;;;9.60;2.73;;;10.00;76.80;;;;;;5014509;28;20053;-91
2021/03/28 08:06:09;;;;;;;8.47;1.93;;;10.00;76.80;;;;;;4997670;28;20397;-90
2021/03/28 08:08:56;;;;;;;6.03;2.00;;;10.00;76.80;;;;;;4997061;28;20045;-89
2021/03/28 08:11:40;;;;;;;11.57;2.23;;;10.00;76.80;;;;;;4996882;28;20042;-86
2021/03/28 08:14:47;;;;;;;14.85;2.08;;;10.10;77.10;;;;;;4997220;28;20483;-87
2021/03/28 08:17:44;;;;;;;7.50;2.27;;;10.10;77.20;;;;;;4976529;28;20091;-87
2021/03/28 08:20:35;;;;;;;13.60;2.30;;;10.10;77.20;;;;;;4997377;28;20022;-87
2021/03/28 08:23:38;;;;;;;11.93;2.23;;;10.10;77.20;;;;;;4997583;28;20041;-87
2021/03/28 08:26:22;;;;;;;10.73;2.87;;;10.10;77.20;;;;;;4996749;28;20351;-88
2021/03/28 08:29:28;;;;;;;10.30;2.55;;;10.10;77.20;;;;;;4996826;28;20470;-89
2021/03/28 08:32:15;;;;;;;10.80;2.30;;;10.10;77.40;;;;;;5014354;28;20037;-87
2021/03/28 08:34:44;;;;;;;11.90;2.93;;;10.20;77.30;;;;;;4996500;28;20033;-89
2021/03/28 08:37:31;;;;;;;16.93;3.00;;;10.30;77.30;;;;;;4997306;28;20026;-89
2021/03/28 08:40:33;;;;;;;9.73;2.30;;;10.40;77.20;;;;;;4996687;28;20493;-89
2021/03/28 08:43:20;;;;;;;7.13;2.23;;;10.50;76.70;;;;;;4996582;28;20549;-88
2021/03/28 08:45:58;;;;;;;13.50;2.27;;;10.60;76.90;;;;;;4996743;28;20022;-88
2021/03/28 08:48:42;;;;;;;9.03;2.43;;;10.70;76.90;;;;;;4996650;28;20026;-89
2021/03/28 08:51:35;;;;;;;5.57;2.00;;;10.80;76.20;;;;;;4996671;28;20071;-89
2021/03/28 08:54:36;;;;;;;11.03;2.30;;;11.00;75.90;;;;;;4997170;28;20033;-88
2021/03/28 08:57:25;;;;;;;12.83;2.13;;;11.20;75.50;;;;;;4996788;28;20072;-88
2021/03/28 09:00:22;;;;;;;10.50;1.93;;;11.30;74.80;;;;;;4996627;28;20080;-88
2021/03/28 09:02:54;;;;;;;7.93;2.00;;;11.70;74.00;;;;;;4996627;28;20104;-89
2021/03/28 09:05:41;;;;;;;14.17;2.63;;;11.70;73.00;;;;;;5014394;28;20034;-88
2021/03/28 09:08:41;;;;;;;11.20;1.70;;;11.80;72.30;;;;;;4996889;28;20377;-89
2021/03/28 09:11:44;;;;;;;9.38;1.85;;;11.90;71.70;;;;;;4999236;28;20119;-89
2021/03/28 09:14:39;;;;;;;13.90;2.15;;;12.00;70.30;;;;;;5016891;28;20083;-89
2021/03/28 09:17:53;;;;;;;7.50;1.27;;;12.10;70.70;;;;;;5000459;28;20386;-90
2021/03/28 09:20:55;;;;;;;9.95;1.70;;;12.40;70.60;;;;;;5000660;28;20022;-90
2021/03/28 09:23:32;;;;;;;11.52;1.88;;;12.60;69.00;;;;;;5000490;28;20390;-90
2021/03/28 09:26:09;;;;;;;14.02;1.50;;;12.70;67.90;;;;;;5018241;28;20030;-88
2021/03/28 09:29:02;;;;;;;11.48;1.95;;;12.70;66.10;;;;;;5000214;28;20060;-89
2021/03/28 09:31:32;;;;;;;10.68;1.83;;;12.80;66.50;;;;;;4999852;28;20038;-88
2021/03/28 09:34:20;;;;;;;9.60;1.67;;;12.80;66.00;;;;;;5000278;28;20135;-88
2021/03/28 09:37:18;;;;;;;9.48;1.80;;;12.90;66.70;;;;;;4999969;28;20026;-89
2021/03/28 09:40:37;;;;;;;16.10;1.52;;;13.00;65.60;;;;;;4995050;28;20030;-86
2021/03/28 09:43:34;;;;;;;10.15;1.80;;;13.10;64.10;;;;;;4932750;28;20047;-88
2021/03/28 09:46:24;;;;;;;9.30;2.42;;;13.10;64.10;;;;;;5000221;28;20022;-87
2021/03/28 09:49:27;;;;;;;12.13;2.70;;;13.20;63.30;;;;;;5000537;28;20038;-88
2021/03/28 09:52:12;;;;;;;9.32;1.92;;;13.20;63.50;;;;;;5000670;28;20069;-90
2021/03/28 09:55:16;;;;;;;12.70;2.17;;;13.30;63.40;;;;;;5000677;28;20034;-88
2021/03/28 09:57:47;;;;;;;10.25;2.08;;;13.30;62.70;;;;;;5018439;28;20029;-87
2021/03/28 10:00:28;;;;;;;10.55;1.88;;;13.30;61.60;;;;;;5000516;28;20030;-87
2021/03/28 10:03:15;;;;;;;7.90;1.88;;;13.30;61.90;;;;;;5001028;28;20057;-86
2021/03/28 10:05:42;;;;;;;13.43;1.73;;;13.30;62.90;;;;;;5000893;28;20030;-87
2021/03/28 10:08:20;;;;;;;10.18;1.42;;;13.30;61.70;;;;;;5000955;28;20022;-87
2021/03/28 10:11:06;;;;;;;8.77;1.23;;;13.30;60.60;;;;;;5000949;28;20041;-88
2021/03/28 10:13:40;;;;;;;8.98;1.38;;;13.40;59.30;;;;;;5018255;28;20029;-86
2021/03/28 10:16:17;;;;;;;7.57;1.17;;;13.40;58.80;;;;;;5000133;28;20042;-89
2021/03/28 10:19:10;;;;;;;10.48;1.80;;;13.60;58.40;;;;;;5000178;28;20053;-88
2021/03/28 10:21:36;;;;;;;8.27;1.20;;;13.80;57.80;;;;;;5017046;28;20490;-88
2021/03/28 10:24:17;;;;;;;14.05;1.92;;;13.90;56.90;;;;;;5000492;28;20026;-89
2021/03/28 10:27:23;;;;;;;6.47;1.20;;;14.00;57.60;;;;;;5001157;28;20088;-89
2021/03/28 10:30:30;;;;;;;9.02;1.48;;;14.30;57.70;;;;;;5001180;28;20046;-88
2021/03/28 10:33:26;;;;;;;8.27;1.33;;;14.60;55.50;;;;;;4942103;29;20031;-88
2021/03/28 10:36:14;;;;;;;8.45;1.08;;;14.60;54.40;;;;;;5002253;28;20021;-88
2021/03/28 10:38:52;;;;;;;7.72;1.15;;;14.60;52.80;;;;;;5005387;28;20046;-88
2021/03/28 10:41:43;;;;;;;9.32;1.00;;;14.40;51.90;;;;;;5005877;28;20025;-88
2021/03/28 10:44:28;;;;;;;7.35;1.77;;;14.20;51.90;;;;;;5023869;28;20084;-88
2021/03/28 10:47:16;;;;;;;6.60;1.40;;;14.00;52.40;;;;;;5000454;28;20021;-88
2021/03/28 10:50:00;;;;;;;11.57;1.73;;;13.80;53.50;;;;;;4999823;28;20049;-88
2021/03/28 10:52:54;;;;;;;6.90;1.33;;;13.80;54.00;;;;;;4998637;28;20494;-88
2021/03/28 10:55:44;;;;;;;7.00;1.20;;;13.70;55.30;;;;;;4999399;28;20029;-90
2021/03/28 10:58:35;;;;;;;6.10;1.17;;;13.60;55.40;;;;;;4999151;28;20026;-87
2021/03/28 11:01:06;;;;;;;13.85;1.73;;;13.60;55.40;;;;;;4999032;28;20056;-90
2021/03/28 11:03:47;;;;;;;12.18;1.67;;;13.50;55.80;;;;;;4999110;28;20054;-88
2021/03/28 11:06:35;;;;;;;8.27;1.50;;;13.50;56.80;;;;;;5016287;28;20037;-88
2021/03/28 11:09:12;;;;;;;9.02;2.13;;;13.50;56.70;;;;;;4999739;28;20467;-88
2021/03/28 11:11:37;;;;;;;7.90;1.90;;;13.50;57.30;;;;;;4998952;28;20038;-86
2021/03/28 11:14:44;;;;;;;15.38;3.05;;;13.40;58.20;;;;;;4998027;28;20455;-88
2021/03/28 11:17:40;;;;;;;9.50;1.33;;;13.40;58.90;;;;;;5010019;28;20482;-89
2021/03/28 11:20:29;;;;;;;8.88;1.35;;;13.40;59.30;;;;;;5018525;28;20426;-89
2021/03/28 11:23:17;;;;;;;10.45;1.73;;;13.30;58.00;;;;;;5015301;28;20057;-89
2021/03/28 11:25:58;;;;;;;9.40;1.23;;;13.20;58.30;;;;;;5007098;28;20029;-89
2021/03/28 11:28:50;;;;;;;8.00;1.42;;;13.20;59.20;;;;;;5001949;28;20054;-88
2021/03/28 11:31:34;;;;;;;8.73;1.40;;;13.10;59.80;;;;;;4997081;28;20040;-88
2021/03/28 11:34:20;;;;;;;12.35;2.00;;;13.00;61.10;;;;;;4998060;28;20581;-89
2021/03/28 11:37:26;;;;;;;5.85;1.50;;;12.90;62.20;;;;;;5015485;28;20501;-90
2021/03/28 11:40:32;;;;;;;8.00;1.27;;;12.80;63.20;;;;;;4985615;28;20037;-87
2021/03/28 11:43:14;;;;;;;7.45;0.90;;;12.70;62.70;;;;;;4972980;28;20508;-89
2021/03/28 11:45:58;;;;;;;;;;;;;;;;;;;;;
2021/03/28 11:48:36;;;;;;;9.48;1.42;;;12.60;64.90;;;;;;5034693;28;20022;-88
2021/03/28 11:51:36;;;;;;;10.70;1.65;;;12.60;63.80;;;;;;5017085;28;20436;-89
2021/03/28 11:54:16;;;;;;;8.35;1.33;;;12.60;64.00;;;;;;5017059;28;20132;-87
2021/03/28 11:57:09;;;;;;;8.43;1.52;;;12.50;63.40;;;;;;5016652;28;20120;-86
2021/03/28 11:59:36;;;;;;;10.23;1.42;;;12.50;62.60;;;;;;5017208;28;20033;-87
2021/03/28 12:02:11;;;;;;;8.50;1.33;;;12.50;62.40;;;;;;5016876;28;20021;-88
2021/03/28 12:04:42;;;;;;;7.13;1.35;;;12.60;62.70;;;;;;5017424;28;20048;-88
2021/03/28 12:07:27;;;;;;;7.80;1.27;;;12.70;62.30;;;;;;5017002;28;20017;-86
2021/03/28 12:10:02;;;;;;;8.00;1.38;;;12.80;62.50;;;;;;5016897;28;20441;-86
2021/03/28 12:13:00;;;;;;;10.15;1.85;;;12.90;62.40;;;;;;5016893;28;20105;-87
2021/03/28 12:15:45;;;;;;;7.55;1.35;;;12.90;62.00;;;;;;5017357;28;20112;-88
2021/03/28 12:21:08;;;;;;;9.80;1.48;;;12.90;62.00;;;;;;5035077;28;19988;-89
2021/03/28 12:23:42;;;;;;;11.13;2.10;;;12.90;62.60;;;;;;5016661;28;20474;-88
2021/03/28 12:26:23;;;;;;;11.38;2.20;;;12.90;62.30;;;;;;5016473;28;20048;-88
2021/03/28 12:29:12;;;;;;;9.75;1.55;;;12.90;61.90;;;;;;5016761;28;20478;-89
2021/03/28 12:31:53;;;;;;;8.30;1.80;;;12.80;62.30;;;;;;5015238;28;20157;-88
2021/03/28 12:34:39;;;;;;;12.15;1.98;;;12.80;62.30;;;;;;5016257;28;20025;-86
2021/03/28 12:37:08;;;;;;;12.95;2.10;;;12.80;62.20;;;;;;5034217;28;20101;-88
2021/03/28 12:40:01;;;;;;;9.57;1.60;;;12.80;62.60;;;;;;5016532;28;20029;-89
2021/03/28 12:42:54;;;;;;;5.85;1.73;;;12.70;62.60;;;;;;5034801;28;20060;-89
2021/03/28 12:45:37;;;;;;;8.88;2.13;;;12.70;63.10;;;;;;4999530;28;20024;-89
2021/03/28 12:48:20;;;;;;;16.13;2.10;;;12.70;62.70;;;;;;5016496;28;20026;-89
2021/03/28 12:50:50;;;;;;;9.02;1.85;;;12.70;62.70;;;;;;5016005;28;20308;-89
2021/03/28 12:53:38;;;;;;;6.75;1.45;;;12.60;62.90;;;;;;5016300;28;20099;-87
2021/03/28 12:56:22;;;;;;;9.23;1.83;;;12.70;63.10;;;;;;5016507;28;20029;-88
2021/03/28 12:58:58;;;;;;;8.43;1.60;;;12.70;63.20;;;;;;5016449;28;20030;-89
2021/03/28 13:01:47;;;;;;;9.02;1.67;;;12.70;63.10;;;;;;5039131;28;20025;-87
2021/03/28 13:04:22;;;;;;;12.18;1.25;;;12.70;63.20;;;;;;5035760;28;20197;-89
2021/03/28 13:06:52;;;;;;;10.38;1.30;;;12.70;63.30;;;;;;5035308;28;20071;-87
2021/03/28 13:09:28;;;;;;;7.38;1.67;;;12.80;63.80;;;;;;5036171;28;20104;-87
2021/03/28 13:11:58;;;;;;;13.65;2.35;;;12.70;63.50;;;;;;5035884;28;20025;-88
2021/03/28 13:14:32;;;;;;;8.88;1.60;;;12.70;63.10;;;;;;5053656;28;20022;-89
2021/03/28 13:17:21;;;;;;;14.60;2.05;;;12.70;63.10;;;;;;5035347;28;20029;-87
2021/03/28 13:19:53;;;;;;;12.05;1.52;;;12.70;63.10;;;;;;5035904;28;20037;-89
2021/03/28 13:22:28;;;;;;;10.80;1.88;;;12.70;62.80;;;;;;5036383;28;20379;-87
2021/03/28 13:25:21;;;;;;;7.45;1.65;;;12.70;62.90;;;;;;5035910;28;20032;-89
2021/03/28 13:28:01;;;;;;;13.63;1.73;;;12.70;62.20;;;;;;5035727;28;20473;-85
2021/03/28 13:30:38;;;;;;;14.35;2.60;;;12.60;62.40;;;;;;5035571;28;20045;-87
2021/03/28 13:33:20;;;;;;;9.10;1.55;;;12.60;62.80;;;;;;5036077;28;20025;-90
2021/03/28 13:35:49;;;;;;;9.48;1.35;;;12.50;63.10;;;;;;5054490;28;20029;-88
2021/03/28 13:38:27;;;;;;;10.00;1.70;;;12.60;63.10;;;;;;5035960;28;20017;-89
2021/03/28 13:41:20;;;;;;;12.10;2.05;;;12.60;63.20;;;;;;5035804;28;20032;-88
2021/03/28 13:43:47;;;;;;;10.50;1.83;;;12.60;63.40;;;;;;5054025;28;20032;-89
2021/03/28 13:46:19;;;;;;;14.48;1.85;;;12.50;63.10;;;;;;5052848;28;20025;-88
2021/03/28 13:48:48;;;;;;;11.38;2.10;;;12.60;63.50;;;;;;5035860;28;20032;-90
2021/03/28 13:51:13;;;;;;;13.13;1.80;;;12.70;63.60;;;;;;5035805;28;20068;-88
2021/03/28 13:53:45;;;;;;;18.48;2.47;;;12.70;63.70;;;;;;5035921;28;20508;-89
2021/03/28 13:56:38;;;;;;;11.70;1.65;;;12.70;63.70;;;;;;5036678;28;20036;-89
2021/03/28 13:59:16;;;;;;;11.75;2.17;;;12.70;63.90;;;;;;5040901;28;20120;-87
2021/03/28 14:01:41;;;;;;;8.65;1.58;;;12.70;64.00;;;;;;5040367;28;20028;-90
2021/03/28 14:07:18;;;;;;;;;;;;;;;;;;;;;
2021/03/28 14:10:07;;;;;;;11.07;1.70;;;12.70;64.50;;;;;;5057094;28;20079;-89
2021/03/28 14:12:38;;;;;;;13.27;1.83;;;12.70;64.60;;;;;;5028882;28;20033;-88
2021/03/28 14:15:23;;;;;;;11.10;2.15;;;12.70;64.80;;;;;;5039199;28;20032;-89
2021/03/28 14:18:13;;;;;;;13.45;2.67;;;12.80;65.20;;;;;;5039085;28;20501;-89
2021/03/28 14:20:49;;;;;;;14.15;2.42;;;12.70;65.00;;;;;;5039150;28;20028;-89
2021/03/28 14:23:33;;;;;;;11.82;1.92;;;12.70;65.00;;;;;;5039564;28;20017;-89
2021/03/28 14:26:07;;;;;;;8.38;2.00;;;12.80;65.00;;;;;;5056155;28;20359;-89
2021/03/28 14:28:52;;;;;;;11.20;2.42;;;12.80;64.80;;;;;;5034453;28;20043;-88